Latest Weather Observations for Melbourne (Olympic Park)

IDV60901

Issued at 11:11 pm EST Monday 18 June 2018 (issued every 10 minutes, with the page automatically refreshed every 10 minutes)

About weather observations | Map of Melbourne area stations | Latest observations for Melbourne area | Other Formats
Station Details ID: 086338 Name: MELBOURNE (OLYMPIC PARK) Lat: -37.83 Lon: 144.98 Height: 7.53 m
Data from the previous 72 hours. | See also: Recent months at Melbourne (Olympic Park)
Date/Time
EST
Temp
°C
App
Temp
°C
Dew
Point
°C
Rel
Hum
%
Delta-T
°C
Wind Press
QNH
hPa
Press
MSL
hPa
Rain since
9am
mm
Dir  Spd
km/h
Gust
km/h
Spd
kts
Gust
kts
18/11:00pm 6.1 5.1 5.8 98 0.1 CALM 0 0 0 0 1028.2 1028.2 0.4
18/10:30pm 5.5 4.4 5.1 97 0.2 CALM 0 0 0 0 1028.3 1028.3 0.4
18/10:00pm 5.9 4.8 5.3 96 0.3 CALM 0 0 0 0 1028.2 1028.2 0.4
18/09:30pm 6.2 5.1 5.3 94 0.4 CALM 0 0 0 0 1028.2 1028.2 0.4
18/09:00pm 6.6 5.6 5.7 94 0.4 CALM 0 0 0 0 1028.1 1028.1 0.4
18/08:30pm 6.9 5.9 5.8 93 0.5 CALM 0 0 0 0 1028.3 1028.3 0.4
18/08:00pm 7.0 5.3 5.8 92 0.5 S 4 6 2 3 1028.3 1028.3 0.4
18/07:30pm 7.6 6.3 5.9 89 0.8 S 2 6 1 3 1027.9 1027.9 0.4
18/07:00pm 8.1 7.2 5.9 86 1.0 CALM 0 4 0 2 1027.6 1027.6 0.4
18/06:30pm 8.8 7.8 5.5 80 1.5 CALM 0 6 0 3 1027.4 1027.4 0.4
18/06:00pm 9.9 8.1 5.5 74 2.0 S 4 7 2 4 1027.3 1027.3 0.4
18/05:30pm 10.6 8.3 5.6 71 2.3 SSE 7 15 4 8 1027.2 1027.2 0.4
18/05:00pm 11.1 8.4 5.4 68 2.6 SSW 9 15 5 8 1027.1 1027.1 0.4
18/04:30pm 11.3 9.2 5.6 68 2.6 S 6 13 3 7 1027.0 1027.0 0.4
18/04:00pm 11.6 8.9 5.7 67 2.7 S 9 17 5 9 1026.7 1026.7 0.4
18/03:30pm 11.7 8.7 6.2 69 2.6 S 11 20 6 11 1026.5 1026.5 0.4
18/03:00pm 11.9 9.1 6.8 71 2.4 S 11 20 6 11 1026.2 1026.2 0.4
18/02:30pm 11.4 8.8 7.7 78 1.8 SSW 11 22 6 12 1026.2 1026.2 0.4
18/02:00pm 11.5 9.4 8.4 81 1.5 WSW 9 15 5 8 1026.1 1026.1 0.2
18/01:30pm 11.9 9.9 8.6 80 1.6 SW 9 15 5 8 1026.2 1026.2 0.2
18/01:00pm 11.0 8.5 8.2 83 1.4 WSW 11 19 6 10 1026.4 1026.4 0.2
18/12:30pm 10.9 9.4 9.2 89 0.8 SSW 7 13 4 7 1026.7 1026.7 0.2
18/12:00pm 11.3 9.1 7.8 79 1.7 SW 9 13 5 7 1026.8 1026.8 0.0
18/11:30am 11.5 8.3 7.0 74 2.1 SW 13 22 7 12 1026.9 1026.9 0.0
18/11:00am 11.6 8.3 6.5 71 2.4 SSW 13 26 7 14 1027.0 1027.0 0.0
18/10:30am 10.7 7.7 7.6 81 1.5 SSW 13 28 7 15 1027.2 1027.2 0.0
18/10:00am 11.6 8.7 6.3 70 2.5 SSW 11 20 6 11 1026.9 1026.9 0.0
18/09:30am 11.9 9.3 6.0 67 2.8 S 9 17 5 9 1026.4 1026.4 0.0
18/09:00am 11.5 8.9 6.2 70 2.5 SSE 9 17 5 9 1026.0 1026.0 7.2
18/08:30am 11.0 8.4 6.0 71 2.3 SSE 9 17 5 9 1025.9 1025.9 7.2
18/08:00am 10.5 7.8 5.7 72 2.2 SSE 9 13 5 7 1025.4 1025.4 7.2
18/07:30am 10.5 8.2 5.9 73 2.1 SSE 7 15 4 8 1025.1 1025.1 7.2
18/07:00am 10.7 8.1 5.9 72 2.2 SSE 9 17 5 9 1024.8 1024.8 7.2
18/06:30am 10.7 7.6 5.7 71 2.3 SSE 11 26 6 14 1024.4 1024.4 7.2
18/06:00am 11.2 8.2 5.9 70 2.4 SSE 11 24 6 13 1024.1 1024.1 7.2
18/05:30am 11.2 7.8 6.1 71 2.4 SSE 13 22 7 12 1024.0 1024.0 7.2
18/05:00am 11.4 8.1 6.3 71 2.4 S 13 20 7 11 1023.8 1023.8 7.2
18/04:30am 11.4 8.1 6.3 71 2.4 S 13 26 7 14 1023.5 1023.5 7.2
18/04:00am 11.3 8.0 6.4 72 2.3 S 13 28 7 15 1023.3 1023.3 7.2
18/03:30am 11.1 8.5 7.6 79 1.7 S 11 22 6 12 1023.2 1023.2 7.2
18/03:00am 11.3 6.9 6.6 73 2.2 S 19 35 10 19 1023.1 1023.1 7.2
18/02:30am 11.1 8.1 7.8 80 1.6 S 13 30 7 16 1023.0 1023.0 7.2
18/02:00am 11.1 8.2 8.1 82 1.5 S 13 22 7 12 1022.8 1022.8 7.2
18/01:30am 11.0 8.6 8.8 86 1.1 S 11 24 6 13 1022.5 1022.5 7.2
18/01:00am 11.5 7.8 8.0 79 1.7 SSE 17 28 9 15 1022.3 1022.3 7.0
18/12:30am 11.6 8.1 8.8 83 1.4 SSW 17 32 9 17 1022.2 1022.2 7.0
18/12:00am 11.7 9.0 9.1 84 1.3 S 13 28 7 15 1022.3 1022.3 7.0
 
Date/Time
EST
Temp
°C
App
Temp
°C
Dew
Point
°C
Rel
Hum
%
Delta-T
°C
Wind Press
QNH
hPa
Press
MSL
hPa
Rain since
9am
mm
Dir  Spd
km/h
Gust
km/h
Spd
kts
Gust
kts
17/11:30pm 11.0 8.0 9.3 89 0.8 S 15 32 8 17 1022.2 1022.2 7.0
17/11:00pm 11.5 7.7 8.9 84 1.3 S 19 32 10 17 1021.8 1021.8 7.0
17/10:30pm 10.8 7.3 8.9 88 0.9 S 17 32 9 17 1021.7 1021.7 6.6
17/10:00pm 12.1 9.4 8.8 80 1.6 S 13 20 7 11 1021.3 1021.3 6.2
17/09:30pm 12.2 9.5 8.9 80 1.6 S 13 24 7 13 1021.0 1021.0 6.2
17/09:00pm 11.9 9.3 9.5 85 1.2 SSW 13 30 7 16 1020.7 1020.7 6.2
17/08:30pm 12.1 9.0 8.8 80 1.6 S 15 30 8 16 1020.5 1020.5 6.2
17/08:00pm 12.3 8.9 9.1 81 1.6 SSW 17 30 9 16 1020.2 1020.2 6.2
17/07:30pm 12.3 8.9 9.1 81 1.6 S 17 32 9 17 1019.8 1019.8 6.2
17/07:00pm 12.1 9.5 9.3 83 1.4 S 13 26 7 14 1019.2 1019.2 6.2
17/06:30pm 12.3 9.6 9.0 80 1.7 S 13 24 7 13 1018.7 1018.7 6.2
17/06:00pm 12.3 9.6 9.0 80 1.6 S 13 24 7 13 1018.2 1018.2 6.2
17/05:30pm 12.4 9.4 9.4 82 1.5 S 15 24 8 13 1017.8 1017.8 6.2
17/05:00pm 12.5 9.5 9.1 80 1.7 S 15 24 8 13 1017.3 1017.3 6.2
17/04:30pm 12.7 9.3 9.2 79 1.8 S 17 33 9 18 1016.9 1016.9 6.2
17/04:00pm 12.7 8.8 9.3 80 1.7 S 20 35 11 19 1016.3 1016.3 6.2
17/03:30pm 12.8 9.3 10.3 85 1.3 S 19 41 10 22 1015.9 1015.9 6.2
17/03:00pm 12.0 7.9 10.1 88 1.0 S 22 43 12 23 1015.2 1015.2 6.2
17/02:30pm 12.1 8.9 9.8 86 1.2 S 17 35 9 19 1014.6 1014.6 5.2
17/02:00pm 11.6 7.4 9.9 89 0.9 S 22 43 12 23 1014.3 1014.3 5.2
17/01:30pm 11.5 7.8 9.6 88 1.0 S 19 32 10 17 1014.1 1014.1 4.0
17/01:00pm 11.5 6.9 8.2 80 1.6 SSW 22 39 12 21 1014.1 1014.1 3.4
17/12:30pm 12.1 8.1 9.1 82 1.5 S 20 41 11 22 1013.6 1013.6 3.4
17/12:00pm 11.9 8.5 9.3 84 1.3 S 17 35 9 19 1013.5 1013.5 3.4
17/11:30am 12.3 8.7 9.9 85 1.2 S 19 32 10 17 1013.4 1013.4 2.8
17/11:00am 11.4 6.9 10.1 92 0.7 SSW 24 44 13 24 1013.2 1013.2 2.4
17/10:30am 11.0 8.2 9.9 93 0.6 WSW 15 39 8 21 1012.4 1012.4 1.6
17/10:00am 10.0 7.3 9.1 94 0.4 W 13 30 7 16 1012.1 1012.1 1.4
17/09:30am 9.7 6.6 8.8 94 0.4 W 15 30 8 16 1011.9 1011.9 1.4
17/09:00am 9.6 6.5 8.7 94 0.4 W 15 35 8 19 1011.9 1011.9 15.6
17/08:30am 9.3 6.1 8.4 94 0.4 W 15 30 8 16 1011.9 1011.9 15.0
17/08:00am 9.5 6.7 8.6 94 0.4 WSW 13 24 7 13 1011.6 1011.6 14.2
17/07:30am 9.2 6.7 8.4 95 0.4 WSW 11 20 6 11 1011.4 1011.4 13.4
17/07:00am 9.2 5.6 8.3 94 0.4 WNW 17 33 9 18 1010.6 1010.6 10.6
17/06:30am 9.0 5.3 8.1 94 0.4 W 17 28 9 15 1010.7 1010.7 8.0
17/06:00am 9.0 5.7 8.1 94 0.4 WNW 15 37 8 20 1010.4 1010.4 6.8
17/05:30am 8.8 5.8 7.7 93 0.5 WNW 13 28 7 15 1010.4 1010.4 5.8
17/05:00am 8.6 5.9 7.4 92 0.6 WNW 11 30 6 16 1010.7 1010.7 5.4
17/04:30am 8.6 5.5 7.1 90 0.7 WNW 13 24 7 13 1010.7 1010.7 4.4
17/04:00am 8.7 4.7 6.8 88 0.9 WNW 17 28 9 15 1010.6 1010.6 3.8
17/03:30am 8.6 5.7 6.7 88 0.9 WNW 11 26 6 14 1010.7 1010.7 3.6
17/03:00am 8.4 5.2 6.9 90 0.7 WNW 13 22 7 12 1010.9 1010.9 3.2
17/02:30am 8.2 5.3 6.7 90 0.7 NW 11 20 6 11 1011.1 1011.1 3.2
17/02:00am 8.1 4.8 6.6 90 0.7 WNW 13 28 7 15 1011.4 1011.4 2.8
17/01:30am 8.1 5.1 6.2 88 0.9 WNW 11 20 6 11 1011.4 1011.4 2.0
17/01:00am 8.2 4.8 5.7 84 1.1 WNW 13 26 7 14 1011.5 1011.5 1.2
17/12:30am 8.3 5.1 5.2 81 1.4 NW 11 19 6 10 1011.6 1011.6 0.4
17/12:00am 8.6 4.5 4.4 75 1.8 NW 15 28 8 15 1011.8 1011.8 0.0
 
Date/Time
EST
Temp
°C
App
Temp
°C
Dew
Point
°C
Rel
Hum
%
Delta-T
°C
Wind Press
QNH
hPa
Press
MSL
hPa
Rain since
9am
mm
Dir  Spd
km/h
Gust
km/h
Spd
kts
Gust
kts
16/11:30pm 8.6 5.2 3.8 72 2.1 NW 11 20 6 11 1012.1 1012.1 0.0
16/11:00pm 8.4 4.5 3.5 71 2.1 NW 13 22 7 12 1012.2 1012.2 0.0
16/10:30pm 8.3 4.8 3.4 71 2.1 NW 11 17 6 9 1012.3 1012.3 0.0
16/10:00pm 8.5 5.0 3.6 71 2.1 NW 11 20 6 11 1012.3 1012.3 0.0
16/09:30pm 8.7 4.8 3.5 70 2.2 NW 13 24 7 13 1012.4 1012.4 0.0
16/09:00pm 8.8 5.7 3.6 70 2.2 NW 9 20 5 11 1012.4 1012.4 0.0
16/08:30pm 9.2 5.4 3.8 69 2.4 NW 13 20 7 11 1012.3 1012.3 0.0
16/08:00pm 9.2 5.8 3.8 69 2.4 WNW 11 20 6 11 1012.6 1012.6 0.0
16/07:30pm 9.3 6.3 3.9 69 2.4 WNW 9 22 5 12 1012.9 1012.9 0.0
16/07:00pm 9.3 5.9 3.9 69 2.4 WNW 11 20 6 11 1012.8 1012.8 0.0
16/06:30pm 9.7 6.4 4.3 69 2.4 W 11 24 6 13 1012.5 1012.5 0.0
16/06:00pm 10.2 6.9 4.4 67 2.6 WNW 11 17 6 9 1012.1 1012.1 0.0
16/05:30pm 10.5 7.1 4.2 65 2.8 W 11 20 6 11 1012.1 1012.1 0.0
16/05:00pm 10.8 6.8 3.1 59 3.4 W 13 26 7 14 1011.9 1011.9 0.0
16/04:30pm 11.7 7.8 3.2 56 3.7 W 13 26 7 14 1011.7 1011.7 0.0
16/04:00pm 12.2 8.5 2.4 51 4.3 WNW 11 26 6 14 1011.4 1011.4 0.0
16/03:30pm 12.1 8.1 3.1 54 4.0 WNW 13 24 7 13 1011.3 1011.3 0.0
16/03:00pm 12.9 9.4 3.3 52 4.3 WNW 11 19 6 10 1011.2 1011.2 0.0
16/02:30pm 12.2 8.2 2.9 53 4.1 NW 13 22 7 12 1011.2 1011.2 0.0
16/02:00pm 12.0 8.0 2.7 53 4.1 WNW 13 26 7 14 1011.5 1011.5 0.0
16/01:30pm 12.1 8.6 3.3 55 3.9 WNW 11 24 6 13 1011.6 1011.6 0.0
16/01:00pm 12.4 7.7 3.1 53 4.1 NW 17 30 9 16 1011.9 1011.9 0.0
16/12:30pm 11.7 7.0 3.0 55 3.8 NW 17 33 9 18 1012.2 1012.2 0.0
16/12:00pm 12.1 8.2 3.6 56 3.8 WNW 13 20 7 11 1012.6 1012.6 0.0
16/11:30am 11.9 7.7 3.7 57 3.7 NW 15 22 8 12 1013.0 1013.0 0.0
16/11:00am 10.6 6.4 3.6 62 3.1 NNW 15 28 8 15 1013.3 1013.3 0.0
16/10:30am 10.7 6.5 4.0 63 3.0 NNW 15 24 8 13 1013.6 1013.6 0.0
16/10:00am 9.7 5.5 3.7 66 2.6 NNW 15 26 8 14 1013.7 1013.7 0.0
16/09:30am 9.4 4.5 4.0 69 2.4 NNW 19 28 10 15 1013.5 1013.5 0.0
16/09:00am 8.4 3.4 3.7 72 2.0 NNW 19 28 10 15 1013.5 1013.5 2.2
16/08:30am 8.0 3.7 3.3 72 2.0 N 15 22 8 12 1013.4 1013.4 2.2
16/08:00am 8.0 3.3 2.9 70 2.1 NNW 17 26 9 14 1013.2 1013.2 2.2
16/07:30am 8.2 4.2 2.7 68 2.3 N 13 22 7 12 1013.0 1013.0 2.2
16/07:00am 7.7 4.4 2.4 69 2.2 NNW 9 13 5 7 1013.0 1013.0 2.2
16/06:30am 7.5 3.1 2.6 71 2.0 N 15 20 8 11 1012.7 1012.7 2.2
16/06:00am 7.2 3.2 2.7 73 1.9 N 13 19 7 10 1012.6 1012.6 2.2
16/05:30am 8.5 5.2 2.7 67 2.4 NNW 9 19 5 10 1012.5 1012.5 2.2
16/05:00am 7.6 4.3 2.7 71 2.0 NNW 9 15 5 8 1012.4 1012.4 2.2
16/04:30am 7.3 3.3 2.6 72 2.0 N 13 17 7 9 1012.5 1012.5 2.2
16/04:00am 7.9 4.2 2.2 67 2.4 N 11 19 6 10 1012.5 1012.5 2.2
16/03:30am 8.7 4.3 2.7 66 2.5 NNW 15 28 8 15 1012.3 1012.3 2.2
16/03:00am 9.0 4.6 2.8 65 2.6 NW 15 24 8 13 1012.4 1012.4 2.2
16/02:30am 8.8 4.7 2.4 64 2.7 NW 13 24 7 13 1012.5 1012.5 2.2
16/02:00am 8.6 4.6 2.8 67 2.5 NW 13 22 7 12 1012.3 1012.3 2.2
16/01:30am 8.8 4.4 2.8 66 2.5 NNW 15 26 8 14 1012.1 1012.1 2.2
16/01:00am 8.6 5.3 2.6 66 2.5 NW 9 22 5 12 1012.4 1012.4 2.2
16/12:30am 8.4 5.5 2.6 67 2.4 NW 7 15 4 8 1012.4 1012.4 2.2
16/12:00am 8.7 4.7 2.9 67 2.5 NW 13 24 7 13 1012.6 1012.6 2.2
 
Date/Time
EST
Temp
°C
App
Temp
°C
Dew
Point
°C
Rel
Hum
%
Delta-T
°C
Wind Press
QNH
hPa
Press
MSL
hPa
Rain since
9am
mm
Dir  Spd
km/h
Gust
km/h
Spd
kts
Gust
kts
15/11:30pm 8.6 5.8 3.2 69 2.3 NW 7 13 4 7 1012.7 1012.7 2.2

Latest Capital City Observations: Canberra | Sydney | Melbourne | Brisbane | Adelaide | Perth | Hobart | Darwin

Other Formats:

Comma delimited format used in spreadsheet applications
http://www.bom.gov.au/fwo/IDV60901/IDV60901.95936.axf

JavaScript Object Notation format (JSON) in row-major order
http://www.bom.gov.au/fwo/IDV60901/IDV60901.95936.json